Time,TemperatureF,DewpointF,PressureIn,WindDirection,WindDirectionDegrees,WindSpeedMPH,WindSpeedGustMPH,Humidity,HourlyPrecipIn,Conditions,Clouds,dailyrainin,SolarRadiationWatts/m^2,SoftwareType,DateUTC
2013-08-15 00:02:00,87.0,21.0,-100.00,West,265,9.0,20.0,9,0.00,,,0.00,0.000000,,2013-08-15 07:02:00,
2013-08-15 00:11:00,87.0,21.0,-100.00,West,265,9.0,20.0,9,0.00,,,0.00,0.000000,,2013-08-15 07:11:00,
2013-08-15 00:21:00,87.0,21.0,-100.00,West,265,9.0,20.0,9,0.00,,,0.00,0.000000,,2013-08-15 07:21:00,
2013-08-15 00:52:00,85.0,17.0,-100.00,West,265,7.0,14.0,8,0.00,,,0.00,0.000000,,2013-08-15 07:52:00,
2013-08-15 01:02:00,85.0,17.0,-100.00,West,265,7.0,14.0,8,0.00,,,0.00,0.000000,,2013-08-15 08:02:00,
2013-08-15 01:11:00,85.0,17.0,-100.00,West,265,7.0,14.0,8,0.00,,,0.00,0.000000,,2013-08-15 08:11:00,
2013-08-15 01:21:00,85.0,17.0,-100.00,West,265,7.0,14.0,8,0.00,,,0.00,0.000000,,2013-08-15 08:21:00,
2013-08-15 01:52:00,83.0,18.0,-100.00,South,174,0.0,12.0,9,0.00,,,0.00,0.000000,,2013-08-15 08:52:00,
2013-08-15 02:01:00,83.0,18.0,-100.00,South,174,0.0,12.0,9,0.00,,,0.00,0.000000,,2013-08-15 09:01:00,
2013-08-15 02:11:00,83.0,18.0,-100.00,South,174,0.0,12.0,9,0.00,,,0.00,0.000000,,2013-08-15 09:11:00,
2013-08-15 02:21:00,83.0,18.0,-100.00,South,174,0.0,12.0,9,0.00,,,0.00,0.000000,,2013-08-15 09:21:00,
2013-08-15 02:53:00,82.0,18.0,-100.00,WSW,241,3.0,9.0,9,0.00,,,0.00,0.000000,,2013-08-15 09:53:00,
2013-08-15 03:03:00,82.0,18.0,-100.00,WSW,241,3.0,9.0,9,0.00,,,0.00,0.000000,,2013-08-15 10:03:00,
2013-08-15 03:12:00,82.0,18.0,-100.00,WSW,241,3.0,9.0,9,0.00,,,0.00,0.000000,,2013-08-15 10:12:00,
2013-08-15 03:22:00,82.0,18.0,-100.00,WSW,241,3.0,9.0,9,0.00,,,0.00,0.000000,,2013-08-15 10:22:00,
2013-08-15 03:52:00,82.0,18.0,-100.00,SSW,197,0.0,7.0,9,0.00,,,0.00,0.000000,,2013-08-15 10:52:00,
2013-08-15 04:02:00,82.0,18.0,-100.00,SSW,197,0.0,7.0,9,0.00,,,0.00,0.000000,,2013-08-15 11:02:00,
2013-08-15 04:11:00,82.0,18.0,-100.00,SSW,197,0.0,7.0,9,0.00,,,0.00,0.000000,,2013-08-15 11:11:00,
2013-08-15 04:22:00,82.0,18.0,-100.00,SSW,197,0.0,7.0,9,0.00,,,0.00,0.000000,,2013-08-15 11:22:00,
2013-08-15 04:52:00,79.0,18.0,-100.00,South,177,0.0,6.0,10,0.00,,,0.00,0.000000,,2013-08-15 11:52:00,
2013-08-15 05:01:00,79.0,18.0,-100.00,South,177,0.0,6.0,10,0.00,,,0.00,0.000000,,2013-08-15 12:01:00,
2013-08-15 05:11:00,79.0,18.0,-100.00,South,177,0.0,6.0,10,0.00,,,0.00,0.000000,,2013-08-15 12:11:00,
2013-08-15 06:52:00,77.0,18.0,-100.00,NW,318,4.0,5.0,11,0.00,,,0.00,3.000000,,2013-08-15 13:52:00,
2013-08-15 07:01:00,77.0,18.0,-100.00,NW,318,4.0,5.0,11,0.00,,,0.00,3.000000,,2013-08-15 14:01:00,
2013-08-15 07:11:00,77.0,18.0,-100.00,NW,318,4.0,5.0,11,0.00,,,0.00,3.000000,,2013-08-15 14:11:00,
2013-08-15 07:22:00,77.0,18.0,-100.00,NW,318,4.0,5.0,11,0.00,,,0.00,3.000000,,2013-08-15 14:22:00,
2013-08-15 08:23:00,83.0,23.0,-100.00,WSW,253,4.0,10.0,11,0.00,,,0.00,138.000000,,2013-08-15 15:23:00,
2013-08-15 09:25:00,88.0,22.0,-100.00,SSE,166,1.0,8.0,9,0.00,,,0.00,404.000000,,2013-08-15 16:25:00,
2013-08-15 09:26:00,90.0,-99.9,-100.00,SE,124,1.0,9.0,9,0.00,,,0.00,670.000000,,2013-08-15 16:26:00,
2013-08-15 09:55:00,90.0,24.0,-100.00,SE,124,1.0,9.0,9,0.00,,,0.00,670.000000,,2013-08-15 16:55:00,
2013-08-15 10:06:00,90.0,24.0,-100.00,SE,124,1.0,9.0,9,0.00,,,0.00,670.000000,,2013-08-15 17:06:00,
2013-08-15 10:18:00,90.0,24.0,-100.00,SE,124,1.0,9.0,9,0.00,,,0.00,670.000000,,2013-08-15 17:18:00,
2013-08-15 10:26:00,-999.0,-99.9,-100.00,East,100,2.0,7.0,-999,0.00,,,0.00,906.000000,,2013-08-15 17:26:00,
2013-08-15 11:00:00,-999.0,-99.9,-100.00,East,100,2.0,7.0,-999,-99.99,,,-99.99,906.000000,,2013-08-15 18:00:00,
2013-08-15 11:10:00,91.0,22.0,-100.00,East,100,2.0,7.0,8,0.00,,,0.00,906.000000,,2013-08-15 18:10:00,
2013-08-15 11:23:00,91.0,22.0,-100.00,East,100,2.0,7.0,8,0.00,,,0.00,906.000000,,2013-08-15 18:23:00,
2013-08-15 12:06:00,-999.0,-99.9,-100.00,SE,129,7.0,11.0,-999,0.00,,,0.00,1097.000000,,2013-08-15 19:06:00,
2013-08-15 12:17:00,91.0,24.0,-100.00,SE,129,7.0,11.0,9,0.00,,,0.00,1097.000000,,2013-08-15 19:17:00,
2013-08-15 12:26:00,96.0,25.0,-100.00,SSE,167,16.0,27.0,8,0.00,,,0.00,1217.000000,,2013-08-15 19:26:00,
2013-08-15 13:14:00,96.0,25.0,-100.00,SSE,167,16.0,27.0,8,0.00,,,0.00,1217.000000,,2013-08-15 20:14:00,
2013-08-15 13:26:00,95.0,32.0,-100.00,South,184,19.0,30.0,11,0.00,,,0.00,1253.000000,,2013-08-15 20:26:00,
2013-08-15 14:05:00,95.0,32.0,-100.00,South,184,19.0,30.0,11,0.00,,,0.00,1253.000000,,2013-08-15 21:05:00,
2013-08-15 14:17:00,95.0,32.0,-100.00,South,184,19.0,30.0,11,0.00,,,0.00,1253.000000,,2013-08-15 21:17:00,
2013-08-15 14:26:00,96.0,31.0,-100.00,South,181,23.0,39.0,10,0.00,,,0.00,1223.000000,,2013-08-15 21:26:00,
2013-08-15 14:57:00,96.0,31.0,-100.00,South,181,23.0,39.0,10,0.00,,,0.00,1223.000000,,2013-08-15 21:57:00,
2013-08-15 15:09:00,96.0,31.0,-100.00,South,181,23.0,39.0,10,0.00,,,0.00,1223.000000,,2013-08-15 22:09:00,
2013-08-15 15:17:00,96.0,31.0,-100.00,South,181,23.0,39.0,10,0.00,,,0.00,1223.000000,,2013-08-15 22:17:00,
2013-08-15 15:26:00,-999.0,-99.9,-100.00,South,178,22.0,34.0,10,0.00,,,0.00,1104.000000,,2013-08-15 22:26:00,
2013-08-15 15:58:00,97.0,31.0,-100.00,South,178,22.0,34.0,10,0.00,,,0.00,1104.000000,,2013-08-15 22:58:00,
2013-08-15 16:07:00,97.0,31.0,-100.00,South,178,22.0,34.0,10,0.00,,,0.00,1104.000000,,2013-08-15 23:07:00,
2013-08-15 16:16:00,97.0,31.0,-100.00,South,178,22.0,34.0,10,0.00,,,0.00,1104.000000,,2013-08-15 23:16:00,
2013-08-15 16:55:00,97.0,31.0,-100.00,South,170,20.0,34.0,10,0.00,,,0.00,930.000000,,2013-08-15 23:55:00,
2013-08-15 17:08:00,97.0,31.0,-100.00,South,170,20.0,34.0,10,0.00,,,0.00,930.000000,,2013-08-16 00:08:00,
2013-08-15 17:24:00,97.0,31.0,-100.00,South,170,20.0,34.0,10,0.00,,,0.00,930.000000,,2013-08-16 00:24:00,
2013-08-15 17:26:00,96.0,37.0,-100.00,South,180,23.0,40.0,13,0.00,,,0.00,678.000000,,2013-08-16 00:26:00,
2013-08-15 17:52:00,96.0,37.0,-100.00,South,180,23.0,40.0,13,0.00,,,0.00,678.000000,,2013-08-16 00:52:00,
2013-08-15 18:17:00,96.0,37.0,-100.00,South,180,23.0,40.0,13,0.00,,,0.00,678.000000,,2013-08-16 01:17:00,
2013-08-15 18:54:00,94.0,34.0,-100.00,SSW,202,17.0,36.0,12,0.00,,,0.00,394.000000,,2013-08-16 01:54:00,
2013-08-15 19:02:00,94.0,34.0,-100.00,SSW,202,17.0,36.0,12,0.00,,,0.00,394.000000,,2013-08-16 02:02:00,
2013-08-15 19:12:00,94.0,34.0,-100.00,SSW,202,17.0,36.0,12,0.00,,,0.00,394.000000,,2013-08-16 02:12:00,
2013-08-15 19:21:00,94.0,34.0,-100.00,SSW,202,17.0,36.0,12,0.00,,,0.00,394.000000,,2013-08-16 02:21:00,
2013-08-15 19:52:00,88.0,31.0,-100.00,West,275,8.0,21.0,13,0.00,,,0.00,44.000000,,2013-08-16 02:52:00,
2013-08-15 20:03:00,88.0,31.0,-100.00,West,275,8.0,21.0,13,0.00,,,0.00,44.000000,,2013-08-16 03:03:00,
2013-08-15 20:11:00,88.0,31.0,-100.00,West,275,8.0,21.0,13,0.00,,,0.00,44.000000,,2013-08-16 03:11:00,
2013-08-15 20:21:00,88.0,31.0,-100.00,West,275,8.0,21.0,13,0.00,,,0.00,44.000000,,2013-08-16 03:21:00,
2013-08-15 20:53:00,88.0,33.0,-100.00,West,273,9.0,24.0,14,0.00,,,0.00,2.000000,,2013-08-16 03:53:00,
2013-08-15 21:03:00,88.0,33.0,-100.00,West,273,9.0,24.0,14,0.00,,,0.00,2.000000,,2013-08-16 04:03:00,
2013-08-15 21:13:00,88.0,33.0,-100.00,West,273,9.0,24.0,14,0.00,,,0.00,2.000000,,2013-08-16 04:13:00,
2013-08-15 21:23:00,88.0,33.0,-100.00,West,273,9.0,24.0,14,0.00,,,0.00,2.000000,,2013-08-16 04:23:00,
2013-08-15 21:53:00,87.0,32.0,-100.00,West,278,13.0,28.0,14,0.00,,,0.00,0.000000,,2013-08-16 04:53:00,
2013-08-15 22:02:00,87.0,32.0,-100.00,West,278,13.0,28.0,14,0.00,,,0.00,0.000000,,2013-08-16 05:02:00,
2013-08-15 22:11:00,87.0,32.0,-100.00,West,278,13.0,28.0,14,0.00,,,0.00,0.000000,,2013-08-16 05:11:00,
2013-08-15 22:21:00,87.0,32.0,-100.00,West,278,13.0,28.0,14,0.00,,,0.00,0.000000,,2013-08-16 05:21:00,